Latest Weather Observations for Kempsey Airport

IDN60801

Issued at 9:33 pm EST Sunday 26 June 2016 (issued every 30 minutes, with the page automatically refreshed every 10 minutes)

About weather observations | Map of weather stations | Latest weather observations for NSW | Other Formats
Station Details ID: 059007 Name: KEMPSEY AIRPORT AWS Lat: -31.07 Lon: 152.77 Height: 13.0 m
Data from the previous 72 hours. | See also: Recent months at Kempsey Airport
Date/Time
EST
Temp
°C
App
Temp
°C
Dew
Point
°C
Rel
Hum
%
Delta-T
°C
Wind Press
QNH
hPa
Press
MSL
hPa
Rain since
9am
mm
Dir  Spd
km/h
Gust
km/h
Spd
kts
Gust
kts
26/09:30pm 8.1 6.7 5.7 85 1.1 WSW 2 7 1 4 1017.2 1017.2 0.0
26/09:00pm 8.1 5.8 5.7 85 1.1 NNW 7 9 4 5 1017.0 1017.0 0.0
26/08:30pm 8.4 6.3 5.9 84 1.1 WNW 6 9 3 5 1017.2 1017.2 0.0
26/08:00pm 9.1 8.2 6.0 81 1.4 CALM 0 0 0 0 1017.1 1017.1 0.0
26/07:30pm 9.0 6.4 6.1 82 1.3 WSW 9 13 5 7 1017.6 1017.6 0.0
26/07:00pm 8.7 6.4 5.6 81 1.4 W 7 9 4 5 1017.6 1017.6 0.0
26/06:30pm 9.2 8.2 5.6 78 1.6 CALM 0 4 0 2 1017.9 1017.9 0.0
26/06:00pm 9.5 7.2 5.5 76 1.8 W 7 9 4 5 1018.1 1018.1 0.0
26/05:30pm 9.5 7.0 4.7 72 2.1 WSW 7 9 4 5 1017.6 1017.6 0.0
26/05:00pm 10.5 8.1 5.1 69 2.4 N 7 7 4 4 1016.9 1016.9 0.0
26/04:30pm 12.4 10.7 3.9 56 3.8 E 2 7 1 4 1016.8 1016.8 0.0
26/04:00pm 13.4 10.9 4.0 53 4.3 E 6 7 3 4 1017.1 1017.1 0.0
26/03:30pm 14.0 11.5 3.8 50 4.6 ENE 6 9 3 5 1017.1 1017.1 0.0
26/03:00pm 14.3 11.2 3.7 49 4.8 NE 9 13 5 7 1017.3 1017.3 0.0
26/02:30pm 14.6 11.7 2.5 44 5.4 NE 7 9 4 5 1017.4 1017.4 0.0
26/02:00pm 14.8 11.3 1.3 40 5.8 N 9 13 5 7 1017.7 1017.7 0.0
26/01:30pm 15.3 12.5 1.8 40 5.9 N 6 11 3 6 1017.8 1017.8 0.0
26/01:00pm 15.0 11.2 1.9 41 5.7 NNW 11 15 6 8 1018.3 1018.3 0.0
26/12:30pm 14.7 11.0 2.3 43 5.5 NNW 11 17 6 9 1019.0 1019.0 0.0
26/12:00pm 12.9 10.5 2.2 48 4.6 NNW 4 7 2 4 1019.4 1019.4 0.0
26/11:30am 12.2 8.9 2.4 51 4.3 WNW 9 15 5 8 1020.2 1020.2 0.0
26/11:00am 11.5 8.2 2.3 53 3.9 NW 9 15 5 8 1021.0 1021.0 0.0
26/10:30am 10.7 6.7 2.8 58 3.4 WNW 13 17 7 9 1021.5 1021.5 0.0
26/10:00am 9.4 5.6 2.0 60 3.1 WNW 11 17 6 9 1021.2 1021.2 0.0
26/09:30am 8.6 3.8 2.4 65 2.6 WNW 17 26 9 14 1021.3 1021.3 0.0
26/09:00am 7.5 4.3 3.2 74 1.8 WNW 9 15 5 8 1021.7 1021.7 0.0
26/08:30am 5.9 2.2 2.2 77 1.5 WNW 11 17 6 9 1021.5 1021.5 0.0
26/08:00am 4.7 2.2 1.6 80 1.2 WSW 4 9 2 5 1021.0 1021.0 0.0
26/07:30am 3.9 0.9 0.9 81 1.2 W 6 11 3 6 1020.7 1020.7 0.0
26/07:00am 3.2 -0.4 0.6 83 1.0 WNW 9 15 5 8 1021.2 1021.2 0.0
26/06:30am 2.4 -0.7 0.3 86 0.8 WNW 6 9 3 5 1020.9 1020.9 0.0
26/06:00am 1.7 -0.3 -0.2 87 0.7 CALM 0 0 0 0 1020.5 1020.5 0.0
26/05:30am 1.6 -1.6 -0.3 87 0.7 WSW 6 7 3 4 1020.3 1020.3 0.0
26/05:00am 1.2 -2.0 -0.6 88 0.6 SSW 6 9 3 5 1020.1 1020.1 0.0
26/04:30am 1.2 -1.7 -0.9 86 0.7 S 4 9 2 5 1019.8 1019.8 0.0
26/04:00am 0.8 -2.5 -1.0 88 0.6 SSW 6 9 3 5 1019.7 1019.7 0.0
26/03:30am 0.7 -1.5 -1.4 86 0.8 CALM 0 6 0 3 1019.5 1019.5 0.0
26/03:00am 1.2 -1.2 -0.6 88 0.6 W 2 9 1 5 1019.4 1019.4 0.0
26/02:30am 1.4 -1.0 -0.5 87 0.7 SW 2 7 1 4 1019.5 1019.5 0.0
26/02:00am 1.6 -0.5 -0.5 86 0.8 CALM 0 4 0 2 1019.6 1019.6 0.0
26/01:30am 1.6 -0.8 -0.2 88 0.7 SW 2 7 1 4 1019.9 1019.9 0.0
26/01:00am 1.8 -1.5 0.0 88 0.7 W 7 11 4 6 1020.4 1020.4 0.0
26/12:30am 1.9 -0.8 0.0 87 0.7 WNW 4 9 2 5 1020.5 1020.5 0.0
26/12:00am 1.4 -2.0 -0.5 87 0.7 WSW 7 9 4 5 1020.7 1020.7 0.0
 
Date/Time
EST
Temp
°C
App
Temp
°C
Dew
Point
°C
Rel
Hum
%
Delta-T
°C
Wind Press
QNH
hPa
Press
MSL
hPa
Rain since
9am
mm
Dir  Spd
km/h
Gust
km/h
Spd
kts
Gust
kts
25/11:30pm 1.7 -1.7 -0.4 86 0.8 WSW 7 9 4 5 1020.7 1020.7 0.0
25/11:00pm 2.6 -1.4 0.7 87 0.7 W 11 17 6 9 1020.6 1020.6 0.0
25/10:30pm 2.1 -0.6 0.3 88 0.7 WSW 4 13 2 7 1020.8 1020.8 0.0
25/10:00pm 1.5 -3.0 -0.3 88 0.6 W 13 15 7 8 1020.7 1020.7 0.0
25/09:30pm 2.4 -1.6 0.5 87 0.7 NW 11 13 6 7 1020.7 1020.7 0.0
25/09:00pm 2.0 -0.4 -0.6 83 0.9 WSW 2 7 1 4 1020.5 1020.5 0.0
25/08:30pm 2.4 -0.9 -0.9 79 1.2 W 6 7 3 4 1020.5 1020.5 0.0
25/08:00pm 3.8 0.5 0.3 78 1.3 W 7 11 4 6 1020.2 1020.2 0.0
25/07:30pm 4.0 0.8 0.9 80 1.2 W 7 9 4 5 1019.8 1019.8 0.0
25/07:00pm 4.2 1.5 0.4 76 1.4 NNW 4 7 2 4 1019.5 1019.5 0.0
25/06:30pm 5.5 2.1 -0.5 65 2.3 WSW 7 9 4 5 1019.0 1019.0 0.0
25/06:00pm 4.3 0.0 -1.7 65 2.2 SSW 11 13 6 7 1018.4 1018.4 0.0
25/05:30pm 7.0 4.8 -1.4 55 3.2 CALM 0 0 0 0 1018.2 1018.2 0.0
25/05:00pm 9.9 5.6 -1.8 44 4.5 S 11 13 6 7 1017.8 1017.8 0.0
25/04:30pm 12.7 7.4 -3.5 32 6.2 S 15 19 8 10 1017.5 1017.5 0.0
25/04:00pm 14.9 9.8 -4.9 25 7.5 SSW 13 20 7 11 1017.3 1017.3 0.0
25/03:30pm 15.7 9.7 -6.5 21 8.2 WSW 17 32 9 17 1016.9 1016.9 0.0
25/03:00pm 16.3 10.4 -5.4 22 8.2 WSW 17 24 9 13 1016.9 1016.9 0.0
25/02:30pm 16.1 9.6 -5.6 22 8.2 SW 20 30 11 16 1016.6 1016.6 0.0
25/02:00pm 16.7 10.9 -5.1 22 8.4 SSW 17 24 9 13 1016.5 1016.5 0.0
25/01:30pm 16.0 9.7 -5.7 22 8.2 SW 19 28 10 15 1016.5 1016.5 0.0
25/01:00pm 16.1 9.3 -5.6 22 8.2 SW 22 33 12 18 1016.6 1016.6 0.0
25/12:30pm 15.8 8.5 -5.8 22 8.1 WSW 24 33 13 18 1016.7 1016.7 0.0
25/12:00pm 15.3 7.7 -5.1 24 7.7 SW 26 35 14 19 1017.0 1017.0 0.0
25/11:30am 14.9 7.3 -5.5 24 7.6 WSW 26 32 14 17 1017.3 1017.3 0.0
25/11:00am 14.5 6.6 -4.7 26 7.3 WSW 28 35 15 19 1017.4 1017.4 0.0
25/10:30am 14.2 6.7 -4.5 27 7.1 WSW 26 39 14 21 1017.6 1017.6 0.0
25/10:00am 13.8 7.0 -4.8 27 7.0 WSW 22 32 12 17 1017.7 1017.7 0.0
25/09:30am 13.2 7.5 -4.0 30 6.5 W 17 28 9 15 1017.6 1017.6 0.0
25/09:00am 12.4 6.1 -4.2 31 6.2 W 20 28 11 15 1017.2 1017.2 0.0
25/08:30am 11.3 5.6 -3.6 35 5.6 W 17 20 9 11 1017.0 1017.0 0.0
25/08:00am 9.8 5.8 -2.2 43 4.6 NNW 9 13 5 7 1016.8 1016.8 0.0
25/07:30am 8.9 4.4 -3.6 41 4.6 WNW 11 19 6 10 1016.4 1016.4 0.0
25/07:00am 8.4 2.1 -3.7 42 4.4 W 20 30 11 16 1016.0 1016.0 0.0
25/06:30am 7.6 1.5 -3.6 45 4.0 W 19 24 10 13 1015.7 1015.7 0.0
25/06:00am 8.4 2.4 -3.4 43 4.3 W 19 24 10 13 1015.4 1015.4 0.0
25/05:30am 8.7 2.5 -3.5 42 4.4 W 20 30 11 16 1014.9 1014.9 0.0
25/05:00am 8.8 2.6 -3.4 42 4.5 WNW 20 28 11 15 1014.7 1014.7 0.0
25/04:30am 9.0 3.0 -3.2 42 4.5 W 19 26 10 14 1014.7 1014.7 0.0
25/04:00am 9.4 3.4 -3.2 41 4.7 W 19 28 10 15 1014.4 1014.4 0.0
25/03:30am 9.6 3.0 -3.0 41 4.7 WNW 22 32 12 17 1014.4 1014.4 0.0
25/03:00am 9.9 3.3 -3.0 40 4.8 W 22 30 12 16 1014.3 1014.3 0.0
25/02:47am 10.3 2.6 -2.7 40 4.9 W 28 46 15 25 1014.1 1014.1 0.0
25/02:30am 10.3 3.4 -2.4 41 4.8 W 24 41 13 22 1013.9 1013.9 0.0
25/02:00am 10.5 3.7 -2.2 41 4.9 WNW 24 41 13 22 1013.5 1013.5 0.0
25/01:30am 10.5 4.3 -2.8 39 5.0 WNW 20 32 11 17 1013.5 1013.5 0.0
25/01:00am 11.0 3.7 -3.1 37 5.3 W 26 39 14 21 1013.4 1013.4 0.0
25/12:30am 10.8 5.0 -4.4 34 5.6 W 17 26 9 14 1013.1 1013.1 0.0
25/12:00am 11.5 4.0 -4.2 33 5.8 W 26 37 14 20 1013.0 1013.0 0.0
 
Date/Time
EST
Temp
°C
App
Temp
°C
Dew
Point
°C
Rel
Hum
%
Delta-T
°C
Wind Press
QNH
hPa
Press
MSL
hPa
Rain since
9am
mm
Dir  Spd
km/h
Gust
km/h
Spd
kts
Gust
kts
24/11:30pm 11.6 3.9 -2.9 36 5.5 W 28 43 15 23 1012.7 1012.7 0.0
24/11:01pm 11.7 3.6 -2.9 36 5.6 W 30 48 16 26 1012.7 1012.7 0.0
24/11:00pm 11.8 3.3 -3.1 35 5.7 W 32 48 17 26 1012.7 1012.7 0.0
24/10:32pm 11.8 4.2 -2.4 37 5.5 W 28 48 15 26 1013.0 1013.0 0.0
24/10:30pm 11.7 3.7 -2.5 37 5.5 W 30 43 16 23 1013.0 1013.0 0.0
24/10:00pm 11.3 5.7 0.1 46 4.6 W 19 37 10 20 1012.6 1012.6 0.0
24/09:30pm 11.2 5.4 0.0 46 4.6 SW 20 28 11 15 1012.6 1012.6 0.0
24/09:00pm 11.7 6.0 -0.4 43 4.9 SW 19 32 10 17 1011.9 1011.9 0.0
24/08:32pm 13.2 5.3 -1.2 37 5.8 W 30 54 16 29 1011.8 1011.8 0.0
24/08:30pm 13.1 5.7 -0.9 38 5.7 W 28 44 15 24 1011.6 1011.6 0.0
24/08:01pm 13.6 4.9 -0.8 37 5.9 W 35 54 19 29 1010.9 1010.9 0.0
24/08:00pm 13.7 4.5 -1.1 36 6.0 W 37 54 20 29 1010.9 1010.9 0.0
24/07:51pm 14.0 5.7 -1.6 34 6.3 W 32 54 17 29 1010.8 1010.8 0.0
24/07:41pm 14.0 8.2 -0.4 37 6.0 W 20 48 11 26 1010.5 1010.5 0.0
24/07:30pm 13.1 8.6 -0.2 40 5.5 WSW 13 17 7 9 1010.2 1010.2 0.0
24/07:00pm 14.0 8.2 -1.6 34 6.3 W 19 28 10 15 1009.3 1009.3 0.0
24/06:30pm 12.1 8.4 -0.1 43 5.0 WNW 9 17 5 9 1009.3 1009.3 0.0
24/06:00pm 13.5 8.3 0.2 40 5.6 W 17 26 9 14 1008.7 1008.7 0.0
24/05:30pm 13.9 8.7 -0.2 38 5.9 W 17 28 9 15 1008.2 1008.2 0.0
24/05:00pm 14.1 8.8 -0.4 37 6.0 W 17 28 9 15 1007.6 1007.6 0.0
24/04:30pm 15.4 8.6 0.8 37 6.3 W 26 46 14 25 1007.2 1007.2 0.0
24/04:04pm 17.0 8.4 2.6 38 6.5 W 37 57 20 31 1006.6 1006.6 0.0
24/04:00pm 17.3 9.0 2.1 36 6.9 W 35 52 19 28 1006.1 1006.1 0.0
24/03:37pm 18.3 9.3 2.2 34 7.3 W 39 59 21 32 1005.5 1005.5 0.0
24/03:30pm 18.4 8.6 2.3 34 7.4 W 43 56 23 30 1005.3 1005.3 0.0
24/03:07pm 19.6 11.6 1.6 30 8.2 W 33 56 18 30 1004.6 1004.6 0.0
24/03:00pm 20.2 12.9 2.5 31 8.3 W 30 48 16 26 1004.4 1004.4 0.0
24/02:44pm 20.4 12.3 0.8 27 8.8 WNW 33 52 18 28 1003.9 1003.9 0.0
24/02:30pm 20.9 12.8 0.7 26 9.1 WNW 33 46 18 25 1003.7 1003.7 0.0
24/02:00pm 21.6 13.5 0.8 25 9.5 W 33 52 18 28 1003.5 1003.5 0.0
24/01:30pm 21.9 13.9 1.6 26 9.4 WNW 33 54 18 29 1003.2 1003.2 0.0
24/01:05pm 22.1 13.9 2.8 28 9.2 WNW 35 54 19 29 1003.2 1003.2 0.0
24/01:00pm 22.1 13.6 3.3 29 9.0 WNW 37 54 20 29 1003.2 1003.2 0.0
24/12:34pm 22.4 13.6 1.4 25 9.7 WNW 37 57 20 31 1003.6 1003.6 0.0
24/12:30pm 22.6 14.3 2.1 26 9.6 WNW 35 50 19 27 1003.7 1003.7 0.0
24/12:00pm 22.4 14.3 3.0 28 9.3 WNW 35 57 19 31 1004.1 1004.1 0.0
24/11:30am 21.9 12.9 4.5 32 8.5 WNW 41 63 22 34 1004.5 1004.5 0.0
24/11:00am 21.6 14.3 7.4 40 7.4 NW 35 56 19 30 1005.1 1005.1 0.0
24/10:43am 21.6 15.4 9.2 45 6.6 WNW 32 50 17 27 1005.4 1005.4 0.0
24/10:36am 21.4 17.7 9.6 47 6.3 WNW 19 50 10 27 1005.4 1005.4 0.0
24/10:30am 20.5 18.9 11.4 56 5.0 W 11 20 6 11 1005.6 1005.6 0.0
24/10:00am 17.3 16.4 10.7 65 3.5 WNW 6 9 3 5 1005.9 1005.9 0.0
24/09:30am 15.4 15.7 11.0 75 2.3 CALM 0 0 0 0 1006.3 1006.3 0.0
24/09:00am 12.9 12.8 9.5 80 1.7 CALM 0 0 0 0 1006.5 1006.5 0.0
24/08:30am 10.5 10.3 8.9 90 0.8 CALM 0 0 0 0 1006.4 1006.4 0.0
24/08:00am 9.1 8.7 8.2 94 0.4 CALM 0 0 0 0 1006.5 1006.5 0.0
24/07:30am 7.4 6.6 6.5 94 0.4 CALM 0 0 0 0 1006.5 1006.5 0.0
24/07:00am 5.5 4.3 4.5 93 0.4 CALM 0 4 0 2 1006.5 1006.5 0.0
24/06:30am 5.7 4.1 4.7 93 0.4 ESE 2 7 1 4 1006.3 1006.3 0.0
24/06:00am 6.1 3.3 5.1 93 0.4 S 9 11 5 6 1006.4 1006.4 0.0
24/05:30am 6.3 4.1 5.3 93 0.4 SSW 6 11 3 6 1005.9 1005.9 0.0
24/05:00am 7.3 6.0 6.2 93 0.5 WNW 2 7 1 4 1006.4 1006.4 0.0
24/04:30am 7.5 5.4 6.6 94 0.4 SW 7 9 4 5 1006.3 1006.3 0.0
24/04:00am 7.1 6.2 6.2 94 0.4 CALM 0 0 0 0 1006.6 1006.6 0.0
24/03:30am 6.1 5.0 5.1 93 0.4 CALM 0 0 0 0 1007.0 1007.0 0.0
24/03:00am 6.4 5.4 5.4 93 0.4 CALM 0 0 0 0 1007.1 1007.1 0.0
24/02:30am 6.5 5.1 5.6 94 0.4 W 2 9 1 5 1007.3 1007.3 0.0
24/02:00am 6.6 5.2 5.7 94 0.4 NW 2 9 1 5 1007.3 1007.3 0.0
24/01:30am 5.9 4.8 4.9 93 0.4 CALM 0 0 0 0 1007.6 1007.6 0.0
24/01:00am 7.1 6.2 5.9 92 0.5 CALM 0 0 0 0 1007.9 1007.9 0.0
24/12:30am 7.4 5.8 6.2 92 0.5 N 4 9 2 5 1008.2 1008.2 0.0
24/12:00am 8.0 7.3 6.8 92 0.6 CALM 0 0 0 0 1008.6 1008.6 0.0
 
Date/Time
EST
Temp
°C
App
Temp
°C
Dew
Point
°C
Rel
Hum
%
Delta-T
°C
Wind Press
QNH
hPa
Press
MSL
hPa
Rain since
9am
mm
Dir  Spd
km/h
Gust
km/h
Spd
kts
Gust
kts
23/11:30pm 8.8 8.2 7.3 90 0.7 CALM 0 0 0 0 1009.0 1009.0 0.0
23/11:00pm 9.7 9.3 8.3 91 0.7 CALM 0 0 0 0 1009.3 1009.3 0.0
23/10:30pm 9.6 8.8 8.2 91 0.7 SSW 2 6 1 3 1009.3 1009.3 0.0
23/10:00pm 9.4 8.9 7.8 90 0.8 CALM 0 0 0 0 1009.7 1009.7 0.0

Other Formats:

Comma delimited format used in spreadsheet applications
http://www.bom.gov.au/fwo/IDN60801/IDN60801.94785.axf

JavaScript Object Notation format (JSON) in row-major order
http://www.bom.gov.au/fwo/IDN60801/IDN60801.94785.json